CFG6ZW EDDM-LEPA
Flight info
| Callsign | CFG6ZW |
|---|---|
| Flight time | 2h 8m |
| Altitude | 35000 |
| Route | TURBU6E TURBU Y107 TOBSO DCT BAKOR DCT SUMIR DCT MISPO DCT PIDAD DCT TALEP DCT RARQU DCT BALEN UT250 RIXOT |
| Aircraft | A21N/M-SDE3FGHIRWY/LB1 |
Departure
| Time | 2026-05-04 13:48 |
|---|---|
| Airport | Munich Airport (EDDM) |
Arrival
| Time | 2026-05-04 15:56 |
|---|---|
| Airport | Palma de Mallorca Airport (LEPA) |
| Time | Latitude | Longitude | Altitude | Speed | Heading |
|---|---|---|---|---|---|
| 2026-05-04 13:05 | 48.35235 | 11.78339 | 1482 ft | 0 kts | 83° |
| 2026-05-04 13:34 | 48.35234 | 11.78332 | 1483 ft | 2 kts | 83° |
| 2026-05-04 13:34 | 48.35233 | 11.78310 | 1483 ft | 2 kts | 83° |
| 2026-05-04 13:34 | 48.35231 | 11.78287 | 1484 ft | 2 kts | 83° |
| 2026-05-04 13:35 | 48.35229 | 11.78265 | 1483 ft | 2 kts | 83° |
| 2026-05-04 13:35 | 48.35234 | 11.78221 | 1483 ft | 2 kts | 117° |
| 2026-05-04 13:35 | 48.35242 | 11.78202 | 1482 ft | 2 kts | 132° |
| 2026-05-04 13:36 | 48.35253 | 11.78187 | 1482 ft | 2 kts | 147° |
| 2026-05-04 13:36 | 48.35267 | 11.78177 | 1482 ft | 2 kts | 162° |
| 2026-05-04 13:36 | 48.35277 | 11.78173 | 1482 ft | 0 kts | 172° |
| 2026-05-04 13:36 | 48.35284 | 11.78172 | 1482 ft | 0 kts | 174° |
| 2026-05-04 13:38 | 48.35276 | 11.78173 | 1482 ft | 3 kts | 174° |
| 2026-05-04 13:38 | 48.35222 | 11.78183 | 1482 ft | 9 kts | 173° |
| 2026-05-04 13:38 | 48.35152 | 11.78196 | 1482 ft | 10 kts | 174° |
| 2026-05-04 13:39 | 48.35078 | 11.78208 | 1482 ft | 10 kts | 174° |
| 2026-05-04 13:39 | 48.35001 | 11.78220 | 1482 ft | 11 kts | 173° |
| 2026-05-04 13:39 | 48.34921 | 11.78227 | 1483 ft | 11 kts | 195° |
| 2026-05-04 13:39 | 48.34880 | 11.78134 | 1483 ft | 11 kts | 261° |
| 2026-05-04 13:40 | 48.34845 | 11.78037 | 1483 ft | 8 kts | 195° |
| 2026-05-04 13:40 | 48.34795 | 11.78042 | 1483 ft | 6 kts | 171° |
| 2026-05-04 13:40 | 48.34759 | 11.78050 | 1483 ft | 4 kts | 172° |
| 2026-05-04 13:40 | 48.34724 | 11.78057 | 1483 ft | 5 kts | 176° |
| 2026-05-04 13:41 | 48.34680 | 11.78019 | 1484 ft | 11 kts | 242° |
| 2026-05-04 13:41 | 48.34664 | 11.77903 | 1484 ft | 11 kts | 264° |
| 2026-05-04 13:41 | 48.34656 | 11.77784 | 1484 ft | 11 kts | 265° |
| 2026-05-04 13:42 | 48.34637 | 11.77540 | 1485 ft | 11 kts | 264° |
| 2026-05-04 13:42 | 48.34628 | 11.77415 | 1485 ft | 12 kts | 262° |
| 2026-05-04 13:42 | 48.34618 | 11.77287 | 1485 ft | 12 kts | 263° |
| 2026-05-04 13:42 | 48.34608 | 11.77160 | 1486 ft | 12 kts | 264° |
| 2026-05-04 13:43 | 48.34594 | 11.76995 | 1486 ft | 17 kts | 263° |
| 2026-05-04 13:43 | 48.34581 | 11.76815 | 1487 ft | 17 kts | 264° |
| 2026-05-04 13:43 | 48.34567 | 11.76638 | 1487 ft | 16 kts | 263° |
| 2026-05-04 13:43 | 48.34555 | 11.76467 | 1488 ft | 16 kts | 265° |
| 2026-05-04 13:44 | 48.34541 | 11.76300 | 1488 ft | 15 kts | 262° |
| 2026-05-04 13:44 | 48.34528 | 11.76140 | 1489 ft | 15 kts | 263° |
| 2026-05-04 13:44 | 48.34516 | 11.75979 | 1489 ft | 16 kts | 264° |
| 2026-05-04 13:44 | 48.34502 | 11.75800 | 1489 ft | 17 kts | 262° |
| 2026-05-04 13:45 | 48.34489 | 11.75625 | 1490 ft | 16 kts | 263° |
| 2026-05-04 13:45 | 48.34475 | 11.75455 | 1490 ft | 16 kts | 263° |
| 2026-05-04 13:45 | 48.34461 | 11.75289 | 1491 ft | 15 kts | 262° |
| 2026-05-04 13:45 | 48.34387 | 11.75221 | 1491 ft | 14 kts | 175° |
| 2026-05-04 13:46 | 48.34290 | 11.75237 | 1492 ft | 14 kts | 172° |
| 2026-05-04 13:46 | 48.34194 | 11.75258 | 1492 ft | 13 kts | 172° |
| 2026-05-04 13:46 | 48.34102 | 11.75288 | 1493 ft | 12 kts | 142° |
| 2026-05-04 13:46 | 48.34087 | 11.75365 | 1493 ft | 3 kts | 85° |
| 2026-05-04 13:47 | 48.34111 | 11.75666 | 1492 ft | 64 kts | 82° |
| 2026-05-04 13:47 | 48.34190 | 11.76675 | 1490 ft | 128 kts | 84° |
| 2026-05-04 13:47 | 48.34309 | 11.78277 | 1506 ft | 176 kts | 82° |
| 2026-05-04 13:47 | 48.34427 | 11.80142 | 2034 ft | 179 kts | 86° |
| 2026-05-04 13:48 | 48.34526 | 11.81974 | 2773 ft | 176 kts | 82° |
| 2026-05-04 13:48 | 48.34667 | 11.83783 | 3381 ft | 180 kts | 82° |
| 2026-05-04 13:48 | 48.34831 | 11.85724 | 3814 ft | 196 kts | 82° |
| 2026-05-04 13:48 | 48.35006 | 11.87839 | 4176 ft | 209 kts | 82° |
| 2026-05-04 13:49 | 48.35187 | 11.90081 | 4457 ft | 226 kts | 82° |
| 2026-05-04 13:49 | 48.35382 | 11.92529 | 4736 ft | 244 kts | 83° |
| 2026-05-04 13:49 | 48.35254 | 11.95092 | 5339 ft | 249 kts | 111° |
| 2026-05-04 13:49 | 48.34273 | 11.97172 | 6011 ft | 251 kts | 139° |
| 2026-05-04 13:50 | 48.32887 | 11.98763 | 6707 ft | 251 kts | 142° |
| 2026-05-04 13:50 | 48.31496 | 12.00350 | 7379 ft | 253 kts | 142° |
| 2026-05-04 13:50 | 48.30072 | 12.01896 | 8059 ft | 254 kts | 152° |
| 2026-05-04 13:50 | 48.28415 | 12.02704 | 8687 ft | 256 kts | 173° |
| 2026-05-04 13:51 | 48.26612 | 12.02713 | 9230 ft | 263 kts | 182° |
| 2026-05-04 13:51 | 48.24766 | 12.02579 | 9883 ft | 265 kts | 183° |
| 2026-05-04 13:51 | 48.22937 | 12.02445 | 10409 ft | 273 kts | 183° |
| 2026-05-04 13:51 | 48.21009 | 12.02312 | 10892 ft | 282 kts | 182° |
| 2026-05-04 13:52 | 48.17048 | 12.02065 | 12158 ft | 289 kts | 182° |
| 2026-05-04 13:52 | 48.15015 | 12.01944 | 12791 ft | 292 kts | 183° |
| 2026-05-04 13:52 | 48.13003 | 12.01827 | 13392 ft | 295 kts | 183° |
| 2026-05-04 13:53 | 48.10946 | 12.01708 | 13983 ft | 299 kts | 183° |
| 2026-05-04 13:53 | 48.08840 | 12.01566 | 14586 ft | 301 kts | 185° |
| 2026-05-04 13:53 | 48.06773 | 12.01183 | 15178 ft | 304 kts | 191° |
| 2026-05-04 13:54 | 48.02551 | 11.99586 | 15831 ft | 326 kts | 197° |
| 2026-05-04 13:54 | 48.00340 | 11.98646 | 16272 ft | 333 kts | 197° |
| 2026-05-04 13:54 | 47.95871 | 11.96757 | 17419 ft | 337 kts | 197° |
| 2026-05-04 13:55 | 47.93607 | 11.95825 | 18012 ft | 338 kts | 195° |
| 2026-05-04 13:55 | 47.88902 | 11.94837 | 19034 ft | 346 kts | 184° |
| 2026-05-04 13:55 | 47.86432 | 11.94762 | 19517 ft | 349 kts | 182° |
| 2026-05-04 13:56 | 47.84007 | 11.94719 | 19983 ft | 352 kts | 182° |
| 2026-05-04 13:56 | 47.81522 | 11.94681 | 20460 ft | 355 kts | 182° |
| 2026-05-04 13:56 | 47.76562 | 11.94594 | 21364 ft | 361 kts | 183° |
| 2026-05-04 13:57 | 47.74063 | 11.94547 | 21793 ft | 364 kts | 183° |
| 2026-05-04 13:57 | 47.71491 | 11.94499 | 22229 ft | 367 kts | 182° |
| 2026-05-04 13:58 | 47.63751 | 11.94363 | 23470 ft | 376 kts | 182° |
| 2026-05-04 13:58 | 47.58530 | 11.94273 | 24278 ft | 381 kts | 182° |
| 2026-05-04 13:58 | 47.55870 | 11.94228 | 24681 ft | 383 kts | 182° |
| 2026-05-04 13:59 | 47.53202 | 11.94181 | 25078 ft | 385 kts | 182° |
| 2026-05-04 13:59 | 47.50516 | 11.94135 | 25439 ft | 388 kts | 183° |
| 2026-05-04 13:59 | 47.45103 | 11.94030 | 26177 ft | 391 kts | 184° |
| 2026-05-04 14:00 | 47.42384 | 11.93795 | 26535 ft | 392 kts | 187° |
| 2026-05-04 14:00 | 47.36977 | 11.92781 | 27238 ft | 395 kts | 189° |
| 2026-05-04 14:00 | 47.34217 | 11.92228 | 27577 ft | 397 kts | 189° |
| 2026-05-04 14:01 | 47.31500 | 11.91686 | 27894 ft | 400 kts | 189° |
| 2026-05-04 14:01 | 47.28742 | 11.91136 | 28217 ft | 402 kts | 189° |
| 2026-05-04 14:01 | 47.23171 | 11.90028 | 28841 ft | 406 kts | 189° |
| 2026-05-04 14:02 | 47.20379 | 11.89473 | 29147 ft | 408 kts | 189° |
| 2026-05-04 14:02 | 47.17568 | 11.88915 | 29440 ft | 410 kts | 189° |
| 2026-05-04 14:02 | 47.14732 | 11.88354 | 29746 ft | 412 kts | 189° |
| 2026-05-04 14:02 | 47.11865 | 11.87786 | 30042 ft | 414 kts | 189° |
| 2026-05-04 14:03 | 47.09005 | 11.87220 | 30331 ft | 416 kts | 189° |
| 2026-05-04 14:03 | 47.06169 | 11.86661 | 30626 ft | 417 kts | 189° |
| 2026-05-04 14:03 | 47.03255 | 11.86081 | 30921 ft | 419 kts | 190° |
| 2026-05-04 14:03 | 47.00384 | 11.85358 | 31206 ft | 420 kts | 193° |
| 2026-05-04 14:04 | 46.94676 | 11.83546 | 31791 ft | 422 kts | 194° |
| 2026-05-04 14:04 | 46.91809 | 11.82635 | 32058 ft | 423 kts | 194° |
| 2026-05-04 14:04 | 46.88958 | 11.81730 | 32316 ft | 425 kts | 194° |
| 2026-05-04 14:05 | 46.83090 | 11.79869 | 32826 ft | 428 kts | 194° |
| 2026-05-04 14:05 | 46.80199 | 11.78955 | 33075 ft | 429 kts | 194° |
| 2026-05-04 14:05 | 46.77256 | 11.78023 | 33387 ft | 429 kts | 194° |
| 2026-05-04 14:06 | 46.74350 | 11.77105 | 33710 ft | 428 kts | 194° |
| 2026-05-04 14:06 | 46.71464 | 11.76194 | 33980 ft | 428 kts | 194° |
| 2026-05-04 14:06 | 46.68537 | 11.75224 | 34225 ft | 428 kts | 196° |
| 2026-05-04 14:06 | 46.65674 | 11.74016 | 34480 ft | 428 kts | 199° |
| 2026-05-04 14:07 | 46.62896 | 11.72548 | 34723 ft | 428 kts | 203° |
| 2026-05-04 14:07 | 46.60158 | 11.70791 | 34929 ft | 428 kts | 207° |
| 2026-05-04 14:07 | 46.57535 | 11.68797 | 35100 ft | 428 kts | 211° |
| 2026-05-04 14:08 | 46.52544 | 11.64038 | 35137 ft | 429 kts | 217° |
| 2026-05-04 14:08 | 46.47735 | 11.58952 | 35137 ft | 429 kts | 217° |
| 2026-05-04 14:09 | 46.40512 | 11.51329 | 35126 ft | 429 kts | 217° |
| 2026-05-04 14:10 | 46.33271 | 11.43715 | 35127 ft | 429 kts | 217° |
| 2026-05-04 14:10 | 46.28445 | 11.38658 | 35122 ft | 429 kts | 217° |
| 2026-05-04 14:11 | 46.23611 | 11.33574 | 35119 ft | 429 kts | 217° |
| 2026-05-04 14:11 | 46.16359 | 11.25863 | 35102 ft | 429 kts | 217° |
| 2026-05-04 14:12 | 46.11536 | 11.20750 | 35099 ft | 429 kts | 217° |
| 2026-05-04 14:13 | 46.04291 | 11.13094 | 35088 ft | 431 kts | 217° |
| 2026-05-04 14:13 | 45.99426 | 11.07969 | 35093 ft | 431 kts | 217° |
| 2026-05-04 14:14 | 45.94595 | 11.02892 | 35068 ft | 431 kts | 218° |
| 2026-05-04 14:14 | 45.87323 | 10.95270 | 35071 ft | 431 kts | 218° |
| 2026-05-04 14:15 | 45.77619 | 10.85138 | 35076 ft | 429 kts | 218° |
| 2026-05-04 14:16 | 45.70416 | 10.77648 | 35054 ft | 428 kts | 218° |
| 2026-05-04 14:17 | 45.63152 | 10.70116 | 35047 ft | 428 kts | 218° |
| 2026-05-04 14:18 | 45.55916 | 10.62637 | 35054 ft | 428 kts | 218° |
| 2026-05-04 14:19 | 45.46267 | 10.52706 | 35057 ft | 426 kts | 218° |
| 2026-05-04 14:19 | 45.41473 | 10.47786 | 35056 ft | 426 kts | 218° |
| 2026-05-04 14:20 | 45.36658 | 10.42855 | 35058 ft | 426 kts | 218° |
| 2026-05-04 14:20 | 45.31879 | 10.37974 | 35056 ft | 425 kts | 219° |
| 2026-05-04 14:21 | 45.24597 | 10.30551 | 35056 ft | 426 kts | 218° |
| 2026-05-04 14:21 | 45.19809 | 10.25684 | 35055 ft | 425 kts | 218° |
| 2026-05-04 14:22 | 45.15013 | 10.20820 | 35055 ft | 425 kts | 218° |
| 2026-05-04 14:22 | 45.10220 | 10.15969 | 35060 ft | 423 kts | 218° |
| 2026-05-04 14:23 | 45.03046 | 10.08730 | 35066 ft | 424 kts | 218° |
| 2026-05-04 14:24 | 44.98248 | 10.03889 | 35071 ft | 424 kts | 218° |
| 2026-05-04 14:24 | 44.93431 | 9.99035 | 35075 ft | 424 kts | 218° |
| 2026-05-04 14:25 | 44.88656 | 9.94235 | 35080 ft | 423 kts | 218° |
| 2026-05-04 14:25 | 44.81461 | 9.87017 | 35088 ft | 422 kts | 218° |
| 2026-05-04 14:26 | 44.76688 | 9.82241 | 35088 ft | 422 kts | 218° |
| 2026-05-04 14:26 | 44.71927 | 9.77488 | 35087 ft | 421 kts | 218° |
| 2026-05-04 14:27 | 44.67163 | 9.72743 | 35091 ft | 421 kts | 218° |
| 2026-05-04 14:27 | 44.62399 | 9.68010 | 35089 ft | 421 kts | 218° |
| 2026-05-04 14:28 | 44.57597 | 9.63243 | 35089 ft | 421 kts | 218° |
| 2026-05-04 14:28 | 44.52830 | 9.58524 | 35088 ft | 420 kts | 219° |
| 2026-05-04 14:29 | 44.43316 | 9.49134 | 35092 ft | 418 kts | 219° |
| 2026-05-04 14:30 | 44.38551 | 9.44443 | 35087 ft | 419 kts | 219° |
| 2026-05-04 14:31 | 44.31450 | 9.37473 | 35085 ft | 418 kts | 219° |
| 2026-05-04 14:32 | 44.21978 | 9.28210 | 35079 ft | 418 kts | 218° |
| 2026-05-04 14:32 | 44.17247 | 9.23594 | 35079 ft | 417 kts | 218° |
| 2026-05-04 14:33 | 44.12489 | 9.18965 | 35081 ft | 417 kts | 218° |
| 2026-05-04 14:33 | 44.07740 | 9.14352 | 35080 ft | 415 kts | 218° |
| 2026-05-04 14:34 | 44.03023 | 9.09779 | 35079 ft | 416 kts | 218° |
| 2026-05-04 14:34 | 43.98299 | 9.05211 | 35076 ft | 416 kts | 219° |
| 2026-05-04 14:35 | 43.93555 | 9.00630 | 35074 ft | 415 kts | 219° |
| 2026-05-04 14:35 | 43.88845 | 8.96090 | 35068 ft | 413 kts | 219° |
| 2026-05-04 14:36 | 43.84139 | 8.91565 | 35068 ft | 412 kts | 219° |
| 2026-05-04 14:36 | 43.79462 | 8.87075 | 35065 ft | 412 kts | 219° |
| 2026-05-04 14:37 | 43.74753 | 8.82562 | 35062 ft | 411 kts | 219° |
| 2026-05-04 14:37 | 43.70044 | 8.78094 | 35059 ft | 412 kts | 217° |
| 2026-05-04 14:38 | 43.64932 | 8.74454 | 35054 ft | 418 kts | 207° |
| 2026-05-04 14:38 | 43.59341 | 8.72130 | 35053 ft | 426 kts | 197° |
| 2026-05-04 14:39 | 43.53402 | 8.71025 | 35058 ft | 429 kts | 194° |
| 2026-05-04 14:39 | 43.47666 | 8.69211 | 35131 ft | 419 kts | 205° |
| 2026-05-04 14:40 | 43.42508 | 8.65837 | 35054 ft | 409 kts | 217° |
| 2026-05-04 14:40 | 43.40193 | 8.63609 | 35051 ft | 404 kts | 223° |
| 2026-05-04 14:40 | 43.35968 | 8.58544 | 35043 ft | 403 kts | 226° |
| 2026-05-04 14:41 | 43.31833 | 8.53444 | 34940 ft | 402 kts | 226° |
| 2026-05-04 14:42 | 43.23529 | 8.43225 | 35053 ft | 401 kts | 226° |
| 2026-05-04 14:42 | 43.19363 | 8.38112 | 35038 ft | 400 kts | 226° |
| 2026-05-04 14:43 | 43.15226 | 8.33049 | 35036 ft | 400 kts | 226° |
| 2026-05-04 14:43 | 43.11090 | 8.27991 | 34979 ft | 399 kts | 225° |
| 2026-05-04 14:44 | 43.06964 | 8.22959 | 35019 ft | 399 kts | 225° |
| 2026-05-04 14:44 | 43.02841 | 8.17939 | 35027 ft | 398 kts | 226° |
| 2026-05-04 14:45 | 42.98707 | 8.12913 | 35034 ft | 398 kts | 226° |
| 2026-05-04 14:45 | 42.94563 | 8.07886 | 35035 ft | 398 kts | 225° |
| 2026-05-04 14:46 | 42.90444 | 8.02897 | 35042 ft | 397 kts | 226° |
| 2026-05-04 14:46 | 42.86350 | 7.97948 | 35040 ft | 396 kts | 225° |
| 2026-05-04 14:47 | 42.82217 | 7.92966 | 35044 ft | 395 kts | 226° |
| 2026-05-04 14:47 | 42.78109 | 7.88018 | 35046 ft | 395 kts | 225° |
| 2026-05-04 14:48 | 42.73985 | 7.83061 | 35040 ft | 395 kts | 225° |
| 2026-05-04 14:48 | 42.69897 | 7.78157 | 35042 ft | 394 kts | 225° |
| 2026-05-04 14:49 | 42.65768 | 7.73209 | 35035 ft | 393 kts | 225° |
| 2026-05-04 14:49 | 42.61670 | 7.68311 | 35032 ft | 394 kts | 225° |
| 2026-05-04 14:50 | 42.57570 | 7.63422 | 35035 ft | 393 kts | 225° |
| 2026-05-04 14:50 | 42.53496 | 7.58570 | 35030 ft | 392 kts | 225° |
| 2026-05-04 14:51 | 42.49397 | 7.53694 | 35033 ft | 393 kts | 225° |
| 2026-05-04 14:51 | 42.45306 | 7.48843 | 35030 ft | 392 kts | 225° |
| 2026-05-04 14:52 | 42.41190 | 7.43964 | 35028 ft | 392 kts | 225° |
| 2026-05-04 14:52 | 42.37094 | 7.39122 | 35025 ft | 392 kts | 225° |
| 2026-05-04 14:53 | 42.33011 | 7.34303 | 35025 ft | 391 kts | 225° |
| 2026-05-04 14:53 | 42.28920 | 7.29486 | 35024 ft | 390 kts | 225° |
| 2026-05-04 14:54 | 42.24838 | 7.24684 | 35020 ft | 391 kts | 225° |
| 2026-05-04 14:54 | 42.20768 | 7.19904 | 35020 ft | 390 kts | 225° |
| 2026-05-04 14:55 | 42.16665 | 7.15095 | 35019 ft | 391 kts | 225° |
| 2026-05-04 14:55 | 42.12550 | 7.10281 | 35020 ft | 391 kts | 225° |
| 2026-05-04 14:56 | 42.08469 | 7.05512 | 35016 ft | 391 kts | 225° |
| 2026-05-04 14:56 | 42.04372 | 7.00738 | 35014 ft | 391 kts | 225° |
| 2026-05-04 14:57 | 42.00280 | 6.95900 | 35015 ft | 390 kts | 226° |
| 2026-05-04 14:57 | 41.96306 | 6.91005 | 35018 ft | 390 kts | 226° |
| 2026-05-04 14:58 | 41.92315 | 6.86094 | 35013 ft | 389 kts | 226° |
| 2026-05-04 14:58 | 41.88980 | 6.82009 | 35012 ft | 389 kts | 226° |
| 2026-05-04 14:59 | 41.84315 | 6.76308 | 35009 ft | 389 kts | 226° |
| 2026-05-04 15:00 | 41.78357 | 6.69043 | 34996 ft | 388 kts | 226° |
| 2026-05-04 15:00 | 41.74348 | 6.64169 | 35000 ft | 388 kts | 225° |
| 2026-05-04 15:01 | 41.68367 | 6.56911 | 34998 ft | 388 kts | 226° |
| 2026-05-04 15:01 | 41.64383 | 6.52089 | 34999 ft | 387 kts | 226° |
| 2026-05-04 15:02 | 41.60401 | 6.47277 | 34986 ft | 387 kts | 225° |
| 2026-05-04 15:02 | 41.56430 | 6.42487 | 34986 ft | 387 kts | 225° |
| 2026-05-04 15:03 | 41.52416 | 6.37658 | 34992 ft | 387 kts | 225° |
| 2026-05-04 15:03 | 41.48433 | 6.32867 | 34994 ft | 386 kts | 224° |
| 2026-05-04 15:04 | 41.44447 | 6.28084 | 34990 ft | 387 kts | 225° |
| 2026-05-04 15:04 | 41.40457 | 6.23303 | 34992 ft | 388 kts | 225° |
| 2026-05-04 15:05 | 41.36443 | 6.18500 | 34987 ft | 387 kts | 224° |
| 2026-05-04 15:05 | 41.32448 | 6.13730 | 34983 ft | 388 kts | 224° |
| 2026-05-04 15:06 | 41.28421 | 6.08932 | 34984 ft | 389 kts | 224° |
| 2026-05-04 15:07 | 41.22482 | 6.01871 | 34980 ft | 390 kts | 224° |
| 2026-05-04 15:07 | 41.18436 | 5.97068 | 34975 ft | 390 kts | 224° |
| 2026-05-04 15:08 | 41.14375 | 5.92255 | 34963 ft | 392 kts | 224° |
| 2026-05-04 15:08 | 41.10321 | 5.87458 | 34979 ft | 393 kts | 224° |
| 2026-05-04 15:09 | 41.06253 | 5.82655 | 34980 ft | 393 kts | 224° |
| 2026-05-04 15:09 | 41.02165 | 5.77837 | 34972 ft | 393 kts | 224° |
| 2026-05-04 15:10 | 40.96173 | 5.70451 | 34967 ft | 392 kts | 228° |
| 2026-05-04 15:11 | 40.91006 | 5.62154 | 34969 ft | 391 kts | 236° |
| 2026-05-04 15:11 | 40.87862 | 5.56297 | 34974 ft | 390 kts | 236° |
| 2026-05-04 15:12 | 40.84736 | 5.50496 | 34965 ft | 390 kts | 236° |
| 2026-05-04 15:12 | 40.81604 | 5.44676 | 34970 ft | 389 kts | 236° |
| 2026-05-04 15:13 | 40.78487 | 5.38892 | 34850 ft | 390 kts | 236° |
| 2026-05-04 15:13 | 40.76923 | 5.35989 | 34617 ft | 387 kts | 236° |
| 2026-05-04 15:13 | 40.75361 | 5.33099 | 34374 ft | 384 kts | 235° |
| 2026-05-04 15:13 | 40.73828 | 5.30262 | 34035 ft | 382 kts | 235° |
| 2026-05-04 15:14 | 40.72283 | 5.27402 | 33555 ft | 380 kts | 235° |
| 2026-05-04 15:14 | 40.70760 | 5.24586 | 32962 ft | 380 kts | 235° |
| 2026-05-04 15:14 | 40.69231 | 5.21762 | 32345 ft | 378 kts | 235° |
| 2026-05-04 15:14 | 40.67712 | 5.18965 | 31945 ft | 374 kts | 235° |
| 2026-05-04 15:15 | 40.66215 | 5.16202 | 31526 ft | 372 kts | 234° |
| 2026-05-04 15:15 | 40.64712 | 5.13435 | 31087 ft | 369 kts | 235° |
| 2026-05-04 15:15 | 40.63242 | 5.10732 | 30656 ft | 367 kts | 234° |
| 2026-05-04 15:16 | 40.60299 | 5.05323 | 29771 ft | 362 kts | 234° |
| 2026-05-04 15:16 | 40.58850 | 5.02665 | 29332 ft | 359 kts | 234° |
| 2026-05-04 15:16 | 40.55951 | 4.97358 | 28404 ft | 353 kts | 234° |
| 2026-05-04 15:17 | 40.54536 | 4.94770 | 27944 ft | 351 kts | 234° |
| 2026-05-04 15:17 | 40.51730 | 4.89635 | 27021 ft | 345 kts | 234° |
| 2026-05-04 15:17 | 40.50329 | 4.87081 | 26562 ft | 342 kts | 234° |
| 2026-05-04 15:18 | 40.48950 | 4.84565 | 26115 ft | 339 kts | 235° |
| 2026-05-04 15:18 | 40.47579 | 4.82068 | 25668 ft | 336 kts | 235° |
| 2026-05-04 15:18 | 40.46224 | 4.79599 | 25222 ft | 334 kts | 235° |
| 2026-05-04 15:19 | 40.43531 | 4.74701 | 24330 ft | 329 kts | 235° |
| 2026-05-04 15:19 | 40.42206 | 4.72291 | 23898 ft | 327 kts | 235° |
| 2026-05-04 15:19 | 40.39572 | 4.67508 | 23045 ft | 323 kts | 235° |
| 2026-05-04 15:20 | 40.38256 | 4.65125 | 22802 ft | 328 kts | 235° |
| 2026-05-04 15:20 | 40.36901 | 4.62670 | 22828 ft | 334 kts | 235° |
| 2026-05-04 15:20 | 40.35528 | 4.60188 | 22847 ft | 335 kts | 235° |
| 2026-05-04 15:20 | 40.34171 | 4.57735 | 22868 ft | 335 kts | 235° |
| 2026-05-04 15:21 | 40.32809 | 4.55274 | 22889 ft | 334 kts | 235° |
| 2026-05-04 15:21 | 40.31448 | 4.52819 | 22915 ft | 333 kts | 234° |
| 2026-05-04 15:21 | 40.28724 | 4.47911 | 22930 ft | 333 kts | 234° |
| 2026-05-04 15:22 | 40.27359 | 4.45452 | 22930 ft | 333 kts | 234° |
| 2026-05-04 15:22 | 40.26006 | 4.43018 | 22924 ft | 333 kts | 235° |
| 2026-05-04 15:22 | 40.23288 | 4.38132 | 22928 ft | 333 kts | 235° |
| 2026-05-04 15:23 | 40.21937 | 4.35705 | 22924 ft | 332 kts | 234° |
| 2026-05-04 15:23 | 40.20569 | 4.33252 | 22927 ft | 331 kts | 234° |
| 2026-05-04 15:23 | 40.19210 | 4.30820 | 22929 ft | 332 kts | 234° |
| 2026-05-04 15:23 | 40.17852 | 4.28388 | 22927 ft | 331 kts | 234° |
| 2026-05-04 15:24 | 40.15151 | 4.23552 | 22935 ft | 330 kts | 234° |
| 2026-05-04 15:24 | 40.12494 | 4.18657 | 22751 ft | 332 kts | 239° |
| 2026-05-04 15:25 | 40.11454 | 4.15980 | 22295 ft | 330 kts | 244° |
| 2026-05-04 15:25 | 40.10488 | 4.13278 | 21880 ft | 327 kts | 244° |
| 2026-05-04 15:25 | 40.09539 | 4.10639 | 21495 ft | 323 kts | 244° |
| 2026-05-04 15:26 | 40.07630 | 4.05420 | 20756 ft | 315 kts | 244° |
| 2026-05-04 15:26 | 40.06683 | 4.02856 | 20396 ft | 312 kts | 244° |
| 2026-05-04 15:26 | 40.04797 | 3.97799 | 19553 ft | 310 kts | 244° |
| 2026-05-04 15:27 | 40.03852 | 3.95275 | 19022 ft | 313 kts | 244° |
| 2026-05-04 15:27 | 40.01939 | 3.90186 | 18021 ft | 316 kts | 245° |
| 2026-05-04 15:28 | 40.00000 | 3.85032 | 16929 ft | 320 kts | 244° |
| 2026-05-04 15:28 | 39.99019 | 3.82429 | 16426 ft | 320 kts | 244° |
| 2026-05-04 15:28 | 39.97057 | 3.77236 | 15436 ft | 320 kts | 244° |
| 2026-05-04 15:29 | 39.96086 | 3.74668 | 14937 ft | 320 kts | 244° |
| 2026-05-04 15:30 | 39.92171 | 3.64343 | 13004 ft | 318 kts | 243° |
| 2026-05-04 15:30 | 39.89266 | 3.56719 | 11717 ft | 311 kts | 243° |
| 2026-05-04 15:31 | 39.87374 | 3.51756 | 10905 ft | 305 kts | 243° |
| 2026-05-04 15:31 | 39.86436 | 3.49301 | 10494 ft | 303 kts | 243° |
| 2026-05-04 15:32 | 39.83725 | 3.42208 | 9906 ft | 272 kts | 243° |
| 2026-05-04 15:32 | 39.82062 | 3.37870 | 9170 ft | 267 kts | 243° |
| 2026-05-04 15:33 | 39.80430 | 3.33618 | 8481 ft | 261 kts | 242° |
| 2026-05-04 15:34 | 39.78030 | 3.27372 | 7459 ft | 254 kts | 242° |
| 2026-05-04 15:34 | 39.77247 | 3.25339 | 7129 ft | 251 kts | 242° |
| 2026-05-04 15:34 | 39.75700 | 3.21323 | 6451 ft | 247 kts | 243° |
| 2026-05-04 15:35 | 39.74177 | 3.17372 | 5791 ft | 243 kts | 242° |
| 2026-05-04 15:35 | 39.73425 | 3.15424 | 5451 ft | 242 kts | 242° |
| 2026-05-04 15:35 | 39.72665 | 3.13462 | 5119 ft | 241 kts | 242° |
| 2026-05-04 15:36 | 39.71125 | 3.09486 | 4982 ft | 248 kts | 242° |
| 2026-05-04 15:36 | 39.70334 | 3.07553 | 4968 ft | 233 kts | 240° |
| 2026-05-04 15:36 | 39.69566 | 3.05798 | 4962 ft | 217 kts | 239° |
| 2026-05-04 15:37 | 39.68806 | 3.04129 | 4825 ft | 215 kts | 238° |
| 2026-05-04 15:37 | 39.68025 | 3.02457 | 4543 ft | 214 kts | 238° |
| 2026-05-04 15:37 | 39.67259 | 3.00837 | 4263 ft | 212 kts | 238° |
| 2026-05-04 15:37 | 39.66482 | 2.99206 | 3983 ft | 209 kts | 238° |
| 2026-05-04 15:38 | 39.65725 | 2.97618 | 3706 ft | 207 kts | 237° |
| 2026-05-04 15:38 | 39.64978 | 2.96053 | 3421 ft | 204 kts | 237° |
| 2026-05-04 15:38 | 39.64246 | 2.94518 | 3263 ft | 193 kts | 237° |
| 2026-05-04 15:38 | 39.63552 | 2.93058 | 3002 ft | 187 kts | 237° |
| 2026-05-04 15:39 | 39.62886 | 2.91658 | 2770 ft | 177 kts | 237° |
| 2026-05-04 15:39 | 39.62271 | 2.90366 | 2498 ft | 162 kts | 237° |
| 2026-05-04 15:39 | 39.61146 | 2.87997 | 2070 ft | 152 kts | 237° |
| 2026-05-04 15:40 | 39.60597 | 2.86840 | 1873 ft | 152 kts | 237° |
| 2026-05-04 15:40 | 39.60038 | 2.85664 | 1683 ft | 152 kts | 237° |
| 2026-05-04 15:40 | 39.59505 | 2.84536 | 1479 ft | 139 kts | 237° |
| 2026-05-04 15:40 | 39.59025 | 2.83525 | 1264 ft | 130 kts | 237° |
| 2026-05-04 15:41 | 39.58550 | 2.82545 | 1124 ft | 128 kts | 237° |
| 2026-05-04 15:41 | 39.58081 | 2.81557 | 996 ft | 128 kts | 237° |
| 2026-05-04 15:41 | 39.57616 | 2.80568 | 815 ft | 128 kts | 236° |
| 2026-05-04 15:41 | 39.57149 | 2.79587 | 625 ft | 127 kts | 238° |
| 2026-05-04 15:42 | 39.56691 | 2.78598 | 466 ft | 127 kts | 237° |
| 2026-05-04 15:42 | 39.56223 | 2.77626 | 335 ft | 127 kts | 236° |
| 2026-05-04 15:42 | 39.55764 | 2.76648 | 176 ft | 126 kts | 237° |
| 2026-05-04 15:42 | 39.55308 | 2.75685 | 50 ft | 125 kts | 237° |
| 2026-05-04 15:43 | 39.54839 | 2.74661 | 517 ft | 137 kts | 237° |
| 2026-05-04 15:43 | 39.54335 | 2.73644 | 1313 ft | 136 kts | 228° |
| 2026-05-04 15:43 | 39.53542 | 2.73064 | 2053 ft | 141 kts | 200° |
| 2026-05-04 15:43 | 39.52548 | 2.72717 | 2646 ft | 159 kts | 198° |
| 2026-05-04 15:44 | 39.51395 | 2.72392 | 2961 ft | 182 kts | 189° |
| 2026-05-04 15:44 | 39.50057 | 2.72811 | 2933 ft | 217 kts | 158° |
| 2026-05-04 15:44 | 39.48707 | 2.73800 | 2899 ft | 224 kts | 153° |
| 2026-05-04 15:44 | 39.47377 | 2.74873 | 2950 ft | 226 kts | 153° |
| 2026-05-04 15:45 | 39.46082 | 2.76057 | 2963 ft | 230 kts | 139° |
| 2026-05-04 15:45 | 39.45287 | 2.77884 | 2965 ft | 240 kts | 105° |
| 2026-05-04 15:45 | 39.45338 | 2.80026 | 2981 ft | 246 kts | 74° |
| 2026-05-04 15:45 | 39.46017 | 2.82082 | 3004 ft | 248 kts | 64° |
| 2026-05-04 15:46 | 39.46816 | 2.84043 | 3005 ft | 248 kts | 63° |
| 2026-05-04 15:46 | 39.47644 | 2.86004 | 2998 ft | 246 kts | 62° |
| 2026-05-04 15:46 | 39.48466 | 2.87931 | 2997 ft | 246 kts | 62° |
| 2026-05-04 15:46 | 39.49295 | 2.89869 | 2988 ft | 245 kts | 62° |
| 2026-05-04 15:47 | 39.50118 | 2.91795 | 2984 ft | 245 kts | 62° |
| 2026-05-04 15:47 | 39.51109 | 2.93577 | 2994 ft | 245 kts | 47° |
| 2026-05-04 15:47 | 39.52327 | 2.95136 | 2997 ft | 244 kts | 43° |
| 2026-05-04 15:47 | 39.53562 | 2.96614 | 2987 ft | 244 kts | 42° |
| 2026-05-04 15:48 | 39.54823 | 2.98109 | 2982 ft | 245 kts | 42° |
| 2026-05-04 15:48 | 39.56073 | 2.99590 | 2988 ft | 244 kts | 42° |
| 2026-05-04 15:48 | 39.58579 | 3.02565 | 2977 ft | 244 kts | 42° |
| 2026-05-04 15:49 | 39.59832 | 3.04059 | 2991 ft | 244 kts | 42° |
| 2026-05-04 15:49 | 39.61161 | 3.05426 | 2971 ft | 242 kts | 24° |
| 2026-05-04 15:49 | 39.62772 | 3.06001 | 2988 ft | 239 kts | 4° |
| 2026-05-04 15:49 | 39.64380 | 3.05779 | 2969 ft | 232 kts | 333° |
| 2026-05-04 15:50 | 39.65618 | 3.04528 | 2980 ft | 225 kts | 302° |
| 2026-05-04 15:50 | 39.66417 | 3.02784 | 2990 ft | 223 kts | 292° |
| 2026-05-04 15:50 | 39.66711 | 3.00887 | 2962 ft | 217 kts | 261° |
| 2026-05-04 15:50 | 39.66269 | 2.99025 | 2985 ft | 215 kts | 243° |
| 2026-05-04 15:51 | 39.65571 | 2.97348 | 2972 ft | 209 kts | 238° |
| 2026-05-04 15:51 | 39.64825 | 2.95734 | 2964 ft | 208 kts | 237° |
| 2026-05-04 15:51 | 39.64069 | 2.94145 | 2982 ft | 208 kts | 237° |
| 2026-05-04 15:51 | 39.63300 | 2.92535 | 2870 ft | 203 kts | 237° |
| 2026-05-04 15:52 | 39.62586 | 2.91036 | 2666 ft | 191 kts | 237° |
| 2026-05-04 15:52 | 39.61921 | 2.89635 | 2419 ft | 176 kts | 237° |
| 2026-05-04 15:52 | 39.61279 | 2.88282 | 2163 ft | 172 kts | 237° |
| 2026-05-04 15:52 | 39.60685 | 2.87027 | 1918 ft | 156 kts | 238° |
| 2026-05-04 15:53 | 39.60126 | 2.85850 | 1702 ft | 152 kts | 237° |
| 2026-05-04 15:53 | 39.59576 | 2.84690 | 1507 ft | 146 kts | 237° |
| 2026-05-04 15:53 | 39.59075 | 2.83639 | 1272 ft | 131 kts | 236° |
| 2026-05-04 15:53 | 39.58604 | 2.82652 | 1091 ft | 128 kts | 237° |
| 2026-05-04 15:54 | 39.58131 | 2.81675 | 960 ft | 127 kts | 236° |
| 2026-05-04 15:54 | 39.57663 | 2.80684 | 822 ft | 127 kts | 236° |
| 2026-05-04 15:54 | 39.57204 | 2.79722 | 670 ft | 127 kts | 237° |
| 2026-05-04 15:54 | 39.56751 | 2.78738 | 506 ft | 127 kts | 237° |
| 2026-05-04 15:55 | 39.56297 | 2.77762 | 348 ft | 126 kts | 236° |
| 2026-05-04 15:55 | 39.55838 | 2.76799 | 186 ft | 126 kts | 237° |
| 2026-05-04 15:55 | 39.55383 | 2.75836 | 43 ft | 124 kts | 236° |
| 2026-05-04 15:55 | 39.54975 | 2.74980 | 31 ft | 90 kts | 237° |
| 2026-05-04 15:56 | 39.54704 | 2.74399 | 37 ft | 69 kts | 238° |
| 2026-05-04 15:56 | 39.54554 | 2.73978 | 38 ft | 30 kts | 264° |
| 2026-05-04 15:56 | 39.54549 | 2.73837 | 38 ft | 10 kts | 268° |
| 2026-05-04 15:56 | 39.54548 | 2.73815 | 38 ft | 0 kts | 268° |
| 2026-05-04 15:57 | 39.54548 | 2.73808 | 38 ft | 1 kts | 268° |
| 2026-05-04 15:57 | 39.54551 | 2.73774 | 38 ft | 11 kts | 287° |
| 2026-05-04 15:57 | 39.54617 | 2.73773 | 38 ft | 12 kts | 48° |
| 2026-05-04 15:57 | 39.54671 | 2.73878 | 38 ft | 14 kts | 59° |
| 2026-05-04 15:58 | 39.54725 | 2.73992 | 38 ft | 15 kts | 58° |
| 2026-05-04 15:58 | 39.54783 | 2.74110 | 38 ft | 15 kts | 43° |
| 2026-05-04 15:58 | 39.54877 | 2.74085 | 38 ft | 15 kts | 327° |
| 2026-05-04 15:58 | 39.54968 | 2.74015 | 38 ft | 15 kts | 329° |
| 2026-05-04 15:59 | 39.55060 | 2.73943 | 37 ft | 15 kts | 329° |
| 2026-05-04 15:59 | 39.55155 | 2.73866 | 36 ft | 16 kts | 328° |
| 2026-05-04 15:59 | 39.55169 | 2.73767 | 35 ft | 12 kts | 280° |
| 2026-05-04 15:59 | 39.55164 | 2.73666 | 34 ft | 10 kts | 231° |
| 2026-05-04 16:00 | 39.55116 | 2.73637 | 34 ft | 3 kts | 190° |
| 2026-05-04 16:00 | 39.55093 | 2.73632 | 34 ft | 3 kts | 188° |